createdAt,value
2023-04-13T00:00:54.663Z,6.1
2023-04-13T00:01:55.350Z,5.5
2023-04-13T00:02:56.101Z,8.1
2023-04-13T00:03:57.089Z,5.6
2023-04-13T00:04:57.880Z,5.2
2023-04-13T00:05:58.440Z,6.1
2023-04-13T00:06:59.030Z,5.1
2023-04-13T00:07:59.625Z,4.7
2023-04-13T00:09:00.219Z,7.3
2023-04-13T00:10:00.810Z,4.7
2023-04-13T00:11:01.403Z,4.9
2023-04-13T00:12:01.996Z,4.6
2023-04-13T00:13:02.591Z,3.9
2023-04-13T00:14:03.190Z,3.8
2023-04-13T00:15:03.773Z,3.7
2023-04-13T00:16:04.372Z,6.9
2023-04-13T00:17:05.003Z,10.0
2023-04-13T00:18:05.630Z,6.7
2023-04-13T00:19:06.243Z,3.1
2023-04-13T00:20:06.858Z,2.6
2023-04-13T00:21:07.471Z,2.8
2023-04-13T00:22:08.079Z,5.4
2023-04-13T00:23:08.673Z,2.8
2023-04-13T00:24:09.269Z,2.6
2023-04-13T00:25:09.896Z,2.3
2023-04-13T00:26:10.479Z,2.4
2023-04-13T00:27:11.061Z,3.3
2023-04-13T00:28:11.665Z,2.7
2023-04-13T00:29:12.274Z,2.8
2023-04-13T00:30:12.882Z,2.5
2023-04-13T00:31:13.508Z,3.1
2023-04-13T00:32:14.076Z,2.3
2023-04-13T00:33:14.709Z,2.8
2023-04-13T00:34:15.262Z,2.8
2023-04-13T00:35:15.856Z,2.1
2023-04-13T00:36:16.453Z,2.8
2023-04-13T00:37:17.047Z,3.0
2023-04-13T00:38:17.640Z,3.2
2023-04-13T00:39:18.233Z,3.8
2023-04-13T00:40:18.827Z,2.6
2023-04-13T00:41:19.426Z,2.5
2023-04-13T00:42:20.013Z,2.5
2023-04-13T00:43:20.620Z,2.7
2023-04-13T00:44:21.208Z,3.3
2023-04-13T00:45:21.808Z,7.2
2023-04-13T00:46:22.495Z,2.5
2023-04-13T00:47:23.108Z,2.7
2023-04-13T00:48:23.688Z,3.2
2023-04-13T00:49:24.279Z,2.6
2023-04-13T00:50:24.883Z,4.8
2023-04-13T00:51:25.491Z,3.9
2023-04-13T00:52:26.086Z,2.0
2023-04-13T00:53:26.679Z,3.6
2023-04-13T00:54:27.272Z,2.8
2023-04-13T00:55:27.904Z,2.2
2023-04-13T00:56:28.461Z,2.2
2023-04-13T00:57:29.056Z,2.3
2023-04-13T00:58:29.677Z,3.6
2023-04-13T00:59:30.259Z,1.9
2023-04-13T01:00:30.851Z,3.3
2023-04-13T01:01:31.477Z,4.1
2023-04-13T01:02:32.287Z,4.0
2023-04-13T01:03:32.932Z,1.8
2023-04-13T01:04:33.526Z,1.7
2023-04-13T01:05:34.106Z,2.4
2023-04-13T01:06:34.701Z,2.0
2023-04-13T01:07:35.299Z,1.9
2023-04-13T01:08:35.890Z,1.9
2023-04-13T01:09:36.484Z,3.6
2023-04-13T01:10:37.095Z,1.8
2023-04-13T01:11:37.693Z,1.9
2023-04-13T01:12:38.310Z,2.4
2023-04-13T01:13:38.922Z,1.3
2023-04-13T01:14:39.514Z,1.4
2023-04-13T01:15:40.156Z,2.1
2023-04-13T01:16:40.726Z,1.3
2023-04-13T01:17:41.377Z,2.2
2023-04-13T01:18:41.980Z,2.9
2023-04-13T01:19:42.576Z,1.3
2023-04-13T01:20:43.176Z,1.8
2023-04-13T01:21:43.797Z,3.1
2023-04-13T01:22:44.375Z,1.3
2023-04-13T01:23:44.968Z,1.7
2023-04-13T01:24:45.635Z,1.2
2023-04-13T01:25:46.244Z,1.5
2023-04-13T01:26:46.840Z,1.8
2023-04-13T01:27:47.415Z,2.7
2023-04-13T01:28:48.015Z,1.7
2023-04-13T01:29:48.607Z,1.9
2023-04-13T01:30:49.200Z,2.8
2023-04-13T01:31:49.854Z,1.5
2023-04-13T01:32:50.463Z,4.7
2023-04-13T01:33:51.030Z,1.6
2023-04-13T01:34:51.625Z,1.6
2023-04-13T01:35:52.216Z,1.6
2023-04-13T01:36:52.812Z,1.8
2023-04-13T01:37:53.404Z,1.9
2023-04-13T01:38:54.000Z,3.1
2023-04-13T01:39:54.590Z,2.0
2023-04-13T01:40:55.184Z,3.9
2023-04-13T01:41:55.779Z,1.6
2023-04-13T01:42:56.393Z,1.6
2023-04-13T01:43:57.147Z,3.1
2023-04-13T01:44:58.066Z,4.4
2023-04-13T01:45:58.678Z,3.2
2023-04-13T01:46:59.418Z,1.6
2023-04-13T01:48:00.055Z,3.0
2023-04-13T01:49:00.617Z,1.7
2023-04-13T01:50:01.225Z,2.2
2023-04-13T01:51:01.834Z,3.9
2023-04-13T01:52:02.426Z,1.7
2023-04-13T01:53:03.019Z,2.4
2023-04-13T01:54:03.638Z,1.6
2023-04-13T01:55:04.245Z,2.4
2023-04-13T01:56:04.843Z,2.1
2023-04-13T01:57:05.431Z,2.0
2023-04-13T01:58:06.022Z,2.0
2023-04-13T01:59:06.620Z,3.4
2023-04-13T02:00:07.208Z,3.8
2023-04-13T02:01:07.975Z,2.3
2023-04-13T02:02:08.751Z,2.8
2023-04-13T02:03:09.357Z,2.5
2023-04-13T02:04:10.083Z,2.6
2023-04-13T02:05:10.755Z,4.8
2023-04-13T02:06:11.371Z,3.0
2023-04-13T02:07:11.967Z,3.0
2023-04-13T02:08:12.555Z,3.2
2023-04-13T02:09:13.150Z,3.6
2023-04-13T02:10:13.742Z,3.5
2023-04-13T02:11:14.331Z,4.0
2023-04-13T02:12:14.924Z,3.4
2023-04-13T02:13:15.519Z,4.9
2023-04-13T02:14:16.132Z,5.5
2023-04-13T02:15:16.728Z,4.8
2023-04-13T02:16:17.415Z,3.7
2023-04-13T02:17:17.928Z,4.3
2023-04-13T02:18:18.521Z,4.2
2023-04-13T02:19:19.115Z,4.3
2023-04-13T02:20:19.710Z,3.9
2023-04-13T02:21:20.328Z,12.4
2023-04-13T02:22:20.940Z,3.9
2023-04-13T02:23:21.538Z,4.1
2023-04-13T02:24:22.129Z,3.8
2023-04-13T02:25:22.752Z,4.8
2023-04-13T02:26:23.396Z,4.4
2023-04-13T02:27:23.980Z,4.7
2023-04-13T02:28:24.565Z,3.9
2023-04-13T02:29:25.170Z,4.3
2023-04-13T02:30:25.776Z,4.0
2023-04-13T02:31:26.383Z,4.2
2023-04-13T02:32:27.042Z,4.3
2023-04-13T02:33:27.583Z,4.1
2023-04-13T02:34:28.177Z,4.6
2023-04-13T02:35:28.770Z,4.7
2023-04-13T02:36:29.365Z,5.3
2023-04-13T02:37:29.963Z,6.0
2023-04-13T02:38:30.564Z,4.0
2023-04-13T02:39:31.144Z,4.5
2023-04-13T02:40:31.736Z,4.8
2023-04-13T02:41:32.351Z,5.4
2023-04-13T02:42:32.924Z,4.7
2023-04-13T02:43:33.545Z,4.7
2023-04-13T02:44:34.162Z,5.1
2023-04-13T02:45:34.718Z,4.3
2023-04-13T02:46:35.286Z,4.2
2023-04-13T02:47:35.923Z,5.4
2023-04-13T02:48:36.489Z,4.4
2023-04-13T02:49:37.090Z,4.7
2023-04-13T02:50:37.697Z,7.5
2023-04-13T02:51:38.267Z,5.3
2023-04-13T02:52:38.858Z,5.1
2023-04-13T02:53:39.478Z,4.9
2023-04-13T02:54:40.070Z,5.0
2023-04-13T02:55:40.657Z,4.8
2023-04-13T02:56:41.247Z,5.7
2023-04-13T02:57:41.949Z,5.3
2023-04-13T02:58:42.469Z,5.0
2023-04-13T02:59:43.061Z,5.5
2023-04-13T03:00:43.650Z,5.3
2023-04-13T03:01:44.324Z,5.3
2023-04-13T03:02:45.016Z,5.2
2023-04-13T03:03:45.602Z,5.2
2023-04-13T03:04:46.208Z,6.4
2023-04-13T03:05:46.791Z,4.6
2023-04-13T03:06:47.382Z,4.9
2023-04-13T03:07:47.994Z,5.0
2023-04-13T03:08:48.589Z,5.0
2023-04-13T03:09:49.179Z,4.7
2023-04-13T03:10:49.779Z,6.4
2023-04-13T03:11:50.384Z,5.6
2023-04-13T03:12:50.965Z,5.5
2023-04-13T03:13:51.557Z,5.0
2023-04-13T03:14:52.155Z,5.2
2023-04-13T03:15:52.754Z,4.9
2023-04-13T03:16:53.380Z,5.3
2023-04-13T03:17:54.022Z,5.2
2023-04-13T03:18:54.633Z,5.2
2023-04-13T03:19:55.194Z,5.3
2023-04-13T03:20:55.788Z,4.7
2023-04-13T03:21:56.380Z,4.7
2023-04-13T03:22:56.981Z,5.5
2023-04-13T03:23:57.764Z,4.6
2023-04-13T03:24:58.471Z,5.4
2023-04-13T03:25:59.083Z,5.7
2023-04-13T03:26:59.711Z,5.3
2023-04-13T03:28:00.289Z,5.5
2023-04-13T03:29:00.902Z,5.6
2023-04-13T03:30:01.504Z,5.0
2023-04-13T03:31:02.141Z,5.4
2023-04-13T03:32:02.700Z,5.4
2023-04-13T03:33:03.374Z,5.2
2023-04-13T03:34:03.924Z,4.9
2023-04-13T03:35:04.498Z,5.2
2023-04-13T03:36:05.087Z,5.4
2023-04-13T03:37:05.705Z,4.9
2023-04-13T03:38:06.310Z,5.4
2023-04-13T03:39:06.897Z,4.2
2023-04-13T03:40:07.490Z,4.9
2023-04-13T03:41:08.099Z,4.9
2023-04-13T03:42:08.704Z,4.9
2023-04-13T03:43:09.283Z,4.9
2023-04-13T03:44:09.883Z,4.3
2023-04-13T03:45:10.508Z,4.4
2023-04-13T03:46:11.148Z,4.1
2023-04-13T03:47:11.698Z,3.2
2023-04-13T03:48:12.298Z,3.8
2023-04-13T03:49:12.903Z,3.6
2023-04-13T03:50:13.516Z,3.4
2023-04-13T03:51:14.124Z,3.1
2023-04-13T03:52:14.723Z,2.8
2023-04-13T03:53:15.318Z,2.9
2023-04-13T03:54:15.910Z,4.1
2023-04-13T03:55:16.549Z,2.5
2023-04-13T03:56:17.098Z,2.2
2023-04-13T03:57:17.695Z,2.2
2023-04-13T03:58:18.285Z,2.1
2023-04-13T03:59:18.882Z,4.7
2023-04-13T04:00:19.474Z,2.0
2023-04-13T04:01:20.086Z,2.6
2023-04-13T04:02:20.869Z,1.9
2023-04-13T04:03:21.584Z,2.8
2023-04-13T04:04:22.318Z,2.2
2023-04-13T04:05:23.028Z,3.5
2023-04-13T04:06:23.606Z,2.5
2023-04-13T04:07:24.204Z,1.8
2023-04-13T04:08:24.790Z,1.6
2023-04-13T04:09:25.420Z,1.4
2023-04-13T04:10:26.029Z,1.6
2023-04-13T04:11:26.629Z,2.2
2023-04-13T04:12:27.216Z,1.4
2023-04-13T04:13:27.836Z,1.4
2023-04-13T04:14:28.426Z,1.6
2023-04-13T04:15:29.024Z,1.3
2023-04-13T04:16:29.630Z,3.6
2023-04-13T04:17:30.244Z,1.5
2023-04-13T04:18:30.796Z,1.8
2023-04-13T04:19:31.395Z,2.2
2023-04-13T04:20:31.989Z,1.3
2023-04-13T04:21:32.585Z,1.6
2023-04-13T04:22:33.185Z,2.4
2023-04-13T04:23:33.781Z,1.3
2023-04-13T04:24:34.364Z,1.6
2023-04-13T04:25:34.971Z,3.2
2023-04-13T04:26:35.554Z,3.8
2023-04-13T04:27:36.150Z,1.8
2023-04-13T04:28:36.744Z,1.8
2023-04-13T04:29:37.347Z,3.5
2023-04-13T04:30:37.937Z,3.0
2023-04-13T04:31:38.558Z,1.4
2023-04-13T04:32:39.196Z,2.1
2023-04-13T04:33:39.804Z,1.7
2023-04-13T04:34:40.403Z,3.0
2023-04-13T04:35:40.998Z,1.3
2023-04-13T04:36:41.730Z,1.1
2023-04-13T04:37:42.399Z,1.3
2023-04-13T04:38:42.997Z,2.4
2023-04-13T04:39:43.594Z,2.5
2023-04-13T04:40:44.192Z,1.8
2023-04-13T04:41:44.786Z,1.3
2023-04-13T04:42:45.384Z,1.1
2023-04-13T04:43:45.983Z,3.4
2023-04-13T04:44:46.578Z,2.3
2023-04-13T04:45:47.254Z,1.2
2023-04-13T04:46:47.789Z,1.3
2023-04-13T04:47:48.406Z,1.1
2023-04-13T04:48:48.987Z,1.6
2023-04-13T04:49:49.587Z,2.7
2023-04-13T04:50:50.180Z,2.0
2023-04-13T04:51:50.781Z,0.8
2023-04-13T04:52:51.376Z,2.0
2023-04-13T04:53:51.977Z,2.0
2023-04-13T04:54:52.573Z,5.8
2023-04-13T04:55:53.183Z,3.4
2023-04-13T04:56:53.790Z,1.3
2023-04-13T04:57:54.390Z,1.1
2023-04-13T04:58:54.988Z,1.3
2023-04-13T04:59:55.581Z,3.6
2023-04-13T05:00:56.212Z,1.4
2023-04-13T05:01:56.822Z,2.0
2023-04-13T05:02:57.516Z,1.0
2023-04-13T05:03:58.120Z,1.5
2023-04-13T05:04:58.829Z,0.7
2023-04-13T05:05:59.402Z,2.5
2023-04-13T05:07:00.001Z,15.7
2023-04-13T05:08:00.643Z,1.2
2023-04-13T05:09:01.406Z,2.7
2023-04-13T05:10:01.986Z,1.2
2023-04-13T05:11:02.597Z,0.7
2023-04-13T05:12:03.215Z,1.8
2023-04-13T05:13:03.795Z,0.9
2023-04-13T05:14:04.390Z,1.8
2023-04-13T05:15:04.993Z,1.7
2023-04-13T05:16:05.639Z,2.4
2023-04-13T05:17:06.203Z,2.7
2023-04-13T05:18:06.856Z,1.2
2023-04-13T05:19:07.409Z,8.1
2023-04-13T05:20:08.030Z,1.9
2023-04-13T05:21:08.636Z,1.0
2023-04-13T05:22:09.295Z,2.8
2023-04-13T05:23:09.895Z,1.6
2023-04-13T05:24:10.512Z,2.4
2023-04-13T05:25:11.120Z,2.2
2023-04-13T05:26:11.706Z,2.4
2023-04-13T05:27:12.304Z,6.2
2023-04-13T05:28:12.903Z,5.8
2023-04-13T05:29:13.502Z,4.3
2023-04-13T05:30:14.103Z,4.6
2023-04-13T05:31:14.741Z,3.0
2023-04-13T05:32:15.312Z,4.1
2023-04-13T05:33:15.920Z,1.2
2023-04-13T05:34:16.532Z,3.0
2023-04-13T05:35:17.121Z,2.2
2023-04-13T05:36:17.743Z,2.4
2023-04-13T05:37:18.361Z,1.0
2023-04-13T05:38:18.956Z,1.7
2023-04-13T05:39:19.573Z,3.3
2023-04-13T05:40:20.174Z,0.7
2023-04-13T05:41:20.768Z,0.9
2023-04-13T05:42:21.373Z,0.8
2023-04-13T05:43:23.720Z,2.0
2023-04-13T05:44:23.562Z,1.1
2023-04-13T05:45:24.150Z,0.8
2023-04-13T05:46:24.871Z,0.9
2023-04-13T05:47:25.487Z,2.2
2023-04-13T05:48:26.057Z,2.4
2023-04-13T05:49:26.656Z,1.5
2023-04-13T05:50:27.252Z,0.9
2023-04-13T05:51:27.851Z,0.5
2023-04-13T05:52:28.447Z,2.9
2023-04-13T05:53:29.056Z,1.5
2023-04-13T05:54:29.669Z,1.1
2023-04-13T05:55:30.260Z,1.1
2023-04-13T05:56:30.855Z,0.6
2023-04-13T05:57:31.453Z,0.8
2023-04-13T05:58:32.044Z,4.2
2023-04-13T05:59:32.792Z,2.5
2023-04-13T06:00:33.359Z,0.9
2023-04-13T06:01:33.982Z,1.0
2023-04-13T06:02:34.685Z,0.6
2023-04-13T06:03:35.444Z,2.9
2023-04-13T06:04:36.378Z,0.7
2023-04-13T06:05:37.023Z,2.0
2023-04-13T06:06:37.624Z,0.9
2023-04-13T06:07:38.229Z,1.1
2023-04-13T06:08:38.820Z,1.8
2023-04-13T06:09:39.420Z,1.7
2023-04-13T06:10:40.017Z,2.1
2023-04-13T06:11:40.624Z,1.3
2023-04-13T06:12:41.217Z,1.4
2023-04-13T06:13:41.814Z,2.3
2023-04-13T06:14:42.412Z,1.8
2023-04-13T06:15:43.012Z,1.5
2023-04-13T06:16:43.656Z,1.4
2023-04-13T06:17:44.285Z,2.6
2023-04-13T06:18:44.867Z,1.7
2023-04-13T06:19:45.466Z,1.7
2023-04-13T06:20:46.066Z,0.7
2023-04-13T06:21:46.662Z,0.6
2023-04-13T06:22:47.280Z,1.7
2023-04-13T06:23:47.877Z,0.5
2023-04-13T06:24:48.478Z,0.5
2023-04-13T06:25:49.084Z,1.5
2023-04-13T06:26:49.677Z,0.8
2023-04-13T06:27:50.410Z,2.1
2023-04-13T06:28:50.891Z,0.9
2023-04-13T06:29:51.510Z,2.9
2023-04-13T06:30:52.133Z,1.3
2023-04-13T06:31:52.712Z,0.6
2023-04-13T06:32:53.346Z,1.9
2023-04-13T06:33:53.953Z,1.6
2023-04-13T06:34:54.544Z,2.5
2023-04-13T06:35:55.143Z,1.6
2023-04-13T06:36:55.770Z,0.6
2023-04-13T06:37:56.419Z,0.5
2023-04-13T06:38:57.284Z,1.8
2023-04-13T06:39:58.080Z,0.7
2023-04-13T06:40:58.673Z,0.5
2023-04-13T06:41:59.290Z,1.4
2023-04-13T06:42:59.885Z,0.9
2023-04-13T06:44:00.487Z,2.2
2023-04-13T06:45:01.092Z,1.0
2023-04-13T06:46:01.824Z,1.3
2023-04-13T06:47:02.432Z,3.0
2023-04-13T06:48:03.061Z,1.8
2023-04-13T06:49:03.642Z,0.7
2023-04-13T06:50:04.246Z,1.9
2023-04-13T06:51:04.860Z,1.7
2023-04-13T06:52:05.467Z,0.8
2023-04-13T06:53:06.057Z,2.0
2023-04-13T06:54:06.661Z,1.5
2023-04-13T06:55:07.278Z,1.2
2023-04-13T06:56:07.928Z,0.9
2023-04-13T06:57:08.525Z,0.5
2023-04-13T06:58:09.126Z,0.8
2023-04-13T06:59:09.725Z,0.7
2023-04-13T07:00:22.193Z,1.3
2023-04-13T07:01:11.997Z,0.8
2023-04-13T07:02:12.648Z,1.4
2023-04-13T07:03:13.487Z,1.0
2023-04-13T07:04:14.268Z,0.5
2023-04-13T07:05:15.029Z,2.2
2023-04-13T07:06:15.541Z,0.7
2023-04-13T07:07:16.143Z,2.1
2023-04-13T07:08:16.744Z,0.6
2023-04-13T07:09:17.338Z,1.0
2023-04-13T07:10:17.939Z,2.9
2023-04-13T07:11:18.535Z,1.1
2023-04-13T07:12:19.154Z,0.5
2023-04-13T07:13:19.752Z,0.5
2023-04-13T07:14:20.351Z,0.9
2023-04-13T07:15:20.958Z,0.9
2023-04-13T07:16:21.576Z,1.6
2023-04-13T07:17:22.249Z,0.7
2023-04-13T07:18:22.834Z,1.1
2023-04-13T07:19:23.421Z,0.6
2023-04-13T07:20:24.033Z,0.8
2023-04-13T07:21:24.627Z,1.1
2023-04-13T07:22:25.220Z,2.2
2023-04-13T07:23:25.819Z,1.2
2023-04-13T07:24:28.082Z,0.8
2023-04-13T07:25:28.026Z,1.0
2023-04-13T07:26:28.609Z,0.9
2023-04-13T07:27:29.205Z,0.6
2023-04-13T07:28:29.807Z,0.9
2023-04-13T07:29:30.405Z,1.2
2023-04-13T07:30:31.007Z,1.2
2023-04-13T07:31:31.631Z,0.8
2023-04-13T07:32:32.253Z,1.0
2023-04-13T07:33:32.802Z,1.4
2023-04-13T07:34:33.400Z,1.5
2023-04-13T07:35:34.022Z,1.1
2023-04-13T07:36:34.648Z,0.9
2023-04-13T07:37:35.216Z,0.7
2023-04-13T07:38:35.818Z,2.6
2023-04-13T07:39:36.414Z,1.4
2023-04-13T07:40:37.015Z,0.9
2023-04-13T07:41:37.617Z,2.1
2023-04-13T07:42:38.217Z,2.8
2023-04-13T07:43:38.813Z,0.9
2023-04-13T07:44:39.434Z,0.9
2023-04-13T07:45:40.063Z,2.8
2023-04-13T07:46:40.772Z,1.0
2023-04-13T07:47:41.400Z,1.1
2023-04-13T07:48:44.321Z,0.8
2023-04-13T07:49:43.583Z,0.9
2023-04-13T07:50:44.204Z,1.3
2023-04-13T07:51:44.829Z,1.7
2023-04-13T07:52:45.415Z,0.9
2023-04-13T07:53:46.001Z,1.7
2023-04-13T07:54:46.612Z,0.7
2023-04-13T07:55:47.222Z,1.4
2023-04-13T07:56:47.822Z,2.0
2023-04-13T07:57:48.423Z,1.9
2023-04-13T07:58:49.031Z,1.5
2023-04-13T07:59:49.625Z,1.9
2023-04-13T08:00:50.224Z,0.9
2023-04-13T08:01:50.837Z,0.8
2023-04-13T08:02:51.739Z,2.2
2023-04-13T08:03:52.662Z,1.1
2023-04-13T08:04:53.547Z,1.4
2023-04-13T08:05:54.270Z,1.7
2023-04-13T08:06:54.868Z,1.0
2023-04-13T08:07:55.466Z,0.8
2023-04-13T08:08:56.072Z,1.1
2023-04-13T08:09:56.664Z,0.8
2023-04-13T08:10:57.264Z,1.0
2023-04-13T08:11:57.885Z,0.9
2023-04-13T08:12:58.484Z,1.0
2023-04-13T08:13:59.083Z,1.4
2023-04-13T08:14:59.685Z,1.0
2023-04-13T08:16:00.386Z,1.1
2023-04-13T08:17:03.662Z,1.1
2023-04-13T08:18:02.625Z,1.8
2023-04-13T08:19:03.205Z,1.0
2023-04-13T08:20:03.829Z,0.9
2023-04-13T08:21:04.427Z,2.5
2023-04-13T08:22:05.088Z,1.3
2023-04-13T08:23:05.672Z,0.9
2023-04-13T08:24:06.244Z,1.4
2023-04-13T08:25:06.860Z,1.6
2023-04-13T08:26:07.466Z,1.4
2023-04-13T08:27:08.080Z,1.4
2023-04-13T08:28:08.677Z,2.7
2023-04-13T08:29:09.279Z,3.5
2023-04-13T08:30:09.878Z,2.4
2023-04-13T08:31:10.558Z,1.7
2023-04-13T08:32:11.442Z,2.4
2023-04-13T08:33:12.105Z,1.5
2023-04-13T08:34:12.699Z,1.5
2023-04-13T08:35:13.298Z,3.3
2023-04-13T08:36:14.000Z,1.5
2023-04-13T08:37:14.516Z,1.6
2023-04-13T08:38:15.225Z,1.3
2023-04-13T08:39:15.893Z,1.6
2023-04-13T08:40:16.505Z,1.6
2023-04-13T08:41:17.054Z,1.8
2023-04-13T08:42:17.782Z,1.9
2023-04-13T08:43:18.383Z,3.8
2023-04-13T08:44:19.043Z,1.9
2023-04-13T08:45:19.654Z,2.0
2023-04-13T08:46:20.272Z,1.7
2023-04-13T08:47:20.848Z,1.8
2023-04-13T08:48:21.448Z,2.0
2023-04-13T08:49:22.236Z,1.5
2023-04-13T08:50:22.804Z,2.1
2023-04-13T08:51:23.768Z,2.0
2023-04-13T08:52:24.378Z,2.8
2023-04-13T08:53:24.984Z,3.0
2023-04-13T08:54:25.579Z,1.9
2023-04-13T08:55:26.201Z,2.0
2023-04-13T08:56:42.098Z,1.8
2023-04-13T08:57:28.413Z,2.6
2023-04-13T08:58:29.010Z,2.0
2023-04-13T08:59:29.612Z,1.6
2023-04-13T09:00:30.216Z,2.1
2023-04-13T09:01:30.926Z,3.1
2023-04-13T09:02:31.579Z,1.8
2023-04-13T09:03:32.438Z,2.1
2023-04-13T09:04:33.219Z,1.8
2023-04-13T09:05:33.644Z,1.6
2023-04-13T09:06:34.243Z,1.9
2023-04-13T09:07:34.868Z,2.0
2023-04-13T09:08:35.466Z,2.3
2023-04-13T09:09:36.096Z,2.2
2023-04-13T09:10:36.704Z,1.6
2023-04-13T09:11:37.287Z,1.7
2023-04-13T09:12:37.900Z,2.4
2023-04-13T09:13:38.510Z,1.3
2023-04-13T09:14:39.109Z,1.3
2023-04-13T09:15:39.713Z,1.8
2023-04-13T09:16:40.347Z,1.7
2023-04-13T09:17:40.941Z,1.7
2023-04-13T09:18:41.554Z,2.4
2023-04-13T09:19:42.156Z,1.4
2023-04-13T09:20:42.757Z,1.8
2023-04-13T09:21:43.374Z,2.7
2023-04-13T09:22:44.003Z,3.2
2023-04-13T09:23:44.585Z,1.0
2023-04-13T09:24:45.185Z,1.9
2023-04-13T09:25:45.800Z,1.4
2023-04-13T09:26:46.423Z,1.4
2023-04-13T09:27:47.002Z,1.1
2023-04-13T09:28:47.603Z,1.1
2023-04-13T09:29:48.222Z,1.3
2023-04-13T09:30:48.858Z,1.0
2023-04-13T09:31:49.432Z,1.1
2023-04-13T09:32:50.038Z,1.7
2023-04-13T09:33:50.640Z,1.3
2023-04-13T09:34:51.235Z,2.4
2023-04-13T09:35:51.837Z,1.9
2023-04-13T09:36:54.690Z,1.3
2023-04-13T09:37:54.031Z,1.1
2023-04-13T09:38:54.634Z,2.5
2023-04-13T09:39:55.231Z,1.5
2023-04-13T09:40:55.831Z,1.9
2023-04-13T09:41:56.428Z,1.4
2023-04-13T09:42:57.062Z,1.0
2023-04-13T09:43:57.671Z,2.1
2023-04-13T09:44:58.272Z,0.7
2023-04-13T09:45:58.906Z,0.9
2023-04-13T09:46:59.565Z,0.6
2023-04-13T09:48:00.192Z,1.7
2023-04-13T09:49:01.025Z,1.3
2023-04-13T09:50:01.415Z,1.2
2023-04-13T09:51:02.058Z,2.2
2023-04-13T09:52:02.614Z,0.8
2023-04-13T09:53:03.228Z,1.0
2023-04-13T09:54:03.819Z,0.7
2023-04-13T09:55:04.435Z,0.9
2023-04-13T09:56:05.036Z,1.9
2023-04-13T09:57:05.643Z,0.9
2023-04-13T09:58:06.242Z,1.4
2023-04-13T09:59:06.840Z,0.8
2023-04-13T10:00:07.455Z,1.8
2023-04-13T10:01:08.089Z,0.7
2023-04-13T10:02:08.730Z,2.1
2023-04-13T10:03:09.388Z,1.1
2023-04-13T10:04:10.004Z,1.1
2023-04-13T10:05:10.716Z,1.9
2023-04-13T10:06:11.293Z,1.1
2023-04-13T10:07:11.887Z,0.9
2023-04-13T10:08:12.504Z,1.3
2023-04-13T10:09:13.114Z,1.3
2023-04-13T10:10:13.773Z,1.0
2023-04-13T10:11:14.524Z,1.1
2023-04-13T10:12:14.944Z,0.7
2023-04-13T10:13:22.054Z,0.9
2023-04-13T10:14:17.136Z,1.1
2023-04-13T10:15:17.741Z,0.8
2023-04-13T10:16:18.392Z,1.2
2023-04-13T10:17:18.991Z,0.7
2023-04-13T10:18:19.752Z,1.0
2023-04-13T10:19:20.363Z,1.0
2023-04-13T10:20:20.961Z,1.3
2023-04-13T10:21:21.567Z,0.7
2023-04-13T10:22:22.164Z,0.8
2023-04-13T10:23:22.766Z,1.0
2023-04-13T10:24:23.381Z,0.9
2023-04-13T10:25:33.181Z,0.8
2023-04-13T10:26:25.575Z,0.8
2023-04-13T10:27:26.174Z,2.1
2023-04-13T10:28:26.780Z,1.3
2023-04-13T10:29:27.376Z,1.1
2023-04-13T10:30:27.983Z,2.8
2023-04-13T10:31:28.675Z,2.3
2023-04-13T10:32:29.248Z,1.0
2023-04-13T10:33:29.825Z,1.3
2023-04-13T10:34:30.428Z,1.3
2023-04-13T10:35:31.045Z,1.1
2023-04-13T10:36:31.667Z,0.9
2023-04-13T10:37:32.265Z,1.5
2023-04-13T10:38:32.864Z,1.0
2023-04-13T10:39:33.565Z,0.8
2023-04-13T10:40:34.085Z,2.5
2023-04-13T10:41:34.700Z,0.8
2023-04-13T10:42:50.403Z,2.0
2023-04-13T10:43:36.908Z,3.1
2023-04-13T10:44:38.976Z,0.9
2023-04-13T10:45:39.101Z,3.6
2023-04-13T10:46:39.753Z,1.3
2023-04-13T10:47:40.394Z,0.7
2023-04-13T10:48:40.959Z,1.4
2023-04-13T10:49:41.581Z,2.6
2023-04-13T10:50:42.180Z,0.6
2023-04-13T10:51:42.783Z,0.9
2023-04-13T10:52:43.377Z,0.9
2023-04-13T10:53:43.977Z,1.0
2023-04-13T10:54:44.583Z,1.1
2023-04-13T10:55:45.178Z,2.1
2023-04-13T10:56:45.800Z,0.9
2023-04-13T10:57:46.416Z,1.1
2023-04-13T10:58:47.001Z,0.8
2023-04-13T11:00:49.192Z,0.9
2023-04-13T11:01:49.808Z,2.0
2023-04-13T11:02:50.598Z,1.0
2023-04-13T11:04:03.551Z,1.2
2023-04-13T11:04:52.683Z,1.3
2023-04-13T11:05:53.219Z,1.3
2023-04-13T11:06:53.820Z,1.5
2023-04-13T11:07:55.797Z,3.7
2023-04-13T11:08:55.855Z,1.5
2023-04-13T11:10:02.779Z,1.7
2023-04-13T11:10:58.070Z,1.2
2023-04-13T11:11:58.691Z,1.8
2023-04-13T11:12:59.287Z,2.2
2023-04-13T11:14:00.044Z,1.2
2023-04-13T11:15:00.748Z,1.0
2023-04-13T11:16:01.384Z,1.2
2023-04-13T11:17:02.083Z,1.2
2023-04-13T11:18:02.720Z,2.1
2023-04-13T11:19:03.282Z,1.5
2023-04-13T11:20:03.888Z,1.9
2023-04-13T11:21:07.916Z,1.3
2023-04-13T11:22:13.232Z,1.5
2023-04-13T11:23:07.674Z,1.8
2023-04-13T11:24:08.285Z,1.8
2023-04-13T11:25:08.915Z,2.4
2023-04-13T11:26:09.506Z,1.8
2023-04-13T11:27:10.109Z,1.8
2023-04-13T11:28:10.710Z,1.9
2023-04-13T11:29:11.310Z,1.5
2023-04-13T11:30:11.935Z,1.6
2023-04-13T11:31:12.539Z,1.9
2023-04-13T11:32:13.210Z,2.7
2023-04-13T11:33:13.781Z,2.0
2023-04-13T11:34:14.351Z,1.6
2023-04-13T11:35:15.155Z,1.5
2023-04-13T11:36:15.612Z,1.9
2023-04-13T11:37:16.197Z,1.2
2023-04-13T11:38:16.788Z,1.6
2023-04-13T11:39:17.409Z,1.8
2023-04-13T11:40:18.008Z,1.8
2023-04-13T11:41:18.611Z,2.4
2023-04-13T11:42:19.231Z,3.6
2023-04-13T11:43:19.833Z,1.9
2023-04-13T11:44:20.435Z,2.4
2023-04-13T11:45:21.967Z,2.3
2023-04-13T11:46:22.571Z,2.4
2023-04-13T11:47:23.169Z,3.3
2023-04-13T11:48:23.765Z,2.7
2023-04-13T11:49:24.374Z,1.6
2023-04-13T11:50:24.969Z,1.9
2023-04-13T11:51:25.594Z,2.9
2023-04-13T11:52:26.197Z,2.2
2023-04-13T11:53:26.785Z,1.9
2023-04-13T11:54:27.393Z,3.7
2023-04-13T11:55:27.990Z,1.4
2023-04-13T11:56:28.614Z,1.6
2023-04-13T11:57:29.211Z,1.4
2023-04-13T11:58:29.816Z,2.6
2023-04-13T11:59:30.415Z,2.6
2023-04-13T12:00:31.019Z,1.4
2023-04-13T12:01:34.403Z,1.7
2023-04-13T12:02:33.963Z,1.9
2023-04-13T12:03:52.804Z,2.1
2023-04-13T12:04:36.540Z,1.2
2023-04-13T12:05:37.489Z,1.8
2023-04-13T12:06:38.116Z,1.6
2023-04-13T12:07:39.796Z,1.9
2023-04-13T12:08:40.672Z,2.6
2023-04-13T12:09:55.521Z,0.9
2023-04-13T12:10:51.800Z,1.0
2023-04-13T12:11:49.503Z,1.7
2023-04-13T12:12:53.193Z,3.0
2023-04-13T12:14:03.274Z,4.3
2023-04-13T12:14:58.354Z,2.6
2023-04-13T12:16:07.353Z,1.7
2023-04-13T12:18:56.140Z,1.6
2023-04-13T12:19:57.759Z,3.4
2023-04-13T12:20:58.600Z,1.0
2023-04-13T12:22:00.322Z,1.8
2023-04-13T12:23:08.629Z,1.5
2023-04-13T12:24:01.679Z,2.3
2023-04-13T12:25:02.589Z,1.4
2023-04-13T12:26:24.998Z,1.6
2023-04-13T12:28:06.375Z,1.3
2023-04-13T12:29:06.980Z,1.3
2023-04-13T12:30:07.580Z,2.2
2023-04-13T12:31:08.224Z,1.9
2023-04-13T12:32:08.805Z,2.5
2023-04-13T12:33:09.495Z,1.4
2023-04-13T12:34:10.065Z,1.5
2023-04-13T12:35:10.675Z,3.9
2023-04-13T12:36:11.313Z,1.6
2023-04-13T12:37:11.995Z,1.7
2023-04-13T12:38:12.570Z,1.3
2023-04-13T12:39:13.181Z,1.9
2023-04-13T12:40:13.817Z,1.2
2023-04-13T12:41:14.407Z,1.9
2023-04-13T12:42:15.021Z,4.3
2023-04-13T12:43:15.604Z,2.5
2023-04-13T12:44:16.206Z,1.4
2023-04-13T12:45:16.906Z,1.7
2023-04-13T12:46:17.562Z,2.2
2023-04-13T12:47:18.195Z,1.8
2023-04-13T12:48:18.741Z,3.0
2023-04-13T12:49:19.343Z,2.2
2023-04-13T12:50:19.943Z,1.4
2023-04-13T12:51:20.546Z,1.5
2023-04-13T12:52:21.173Z,1.5
2023-04-13T12:53:21.790Z,2.5
2023-04-13T12:54:22.415Z,2.8
2023-04-13T12:55:22.988Z,1.5
2023-04-13T12:56:23.598Z,2.9
2023-04-13T12:57:24.239Z,1.2
2023-04-13T12:58:24.830Z,1.9
2023-04-13T12:59:25.455Z,1.7
2023-04-13T13:00:26.034Z,2.7
2023-04-13T13:01:26.719Z,2.5
2023-04-13T13:02:27.324Z,1.8
2023-04-13T13:03:27.996Z,1.5
2023-04-13T13:04:28.587Z,1.4
2023-04-13T13:05:29.200Z,2.0
2023-04-13T13:06:29.783Z,2.0
2023-04-13T13:07:30.384Z,1.5
2023-04-13T13:08:32.851Z,1.9
2023-04-13T13:09:32.587Z,2.0
2023-04-13T13:10:33.175Z,1.6
2023-04-13T13:11:33.776Z,2.9
2023-04-13T13:12:34.379Z,2.7
2023-04-13T13:13:34.987Z,2.2
2023-04-13T13:14:35.587Z,1.6
2023-04-13T13:15:36.214Z,1.6
2023-04-13T13:16:36.848Z,2.4
2023-04-13T13:17:37.440Z,3.9
2023-04-13T13:19:02.787Z,3.2
2023-04-13T13:19:39.611Z,3.5
2023-04-13T13:20:40.233Z,2.0
2023-04-13T13:21:40.845Z,3.1
2023-04-13T13:22:41.425Z,4.2
2023-04-13T13:23:42.047Z,3.7
2023-04-13T13:24:42.648Z,5.0
2023-04-13T13:25:52.490Z,2.4
2023-04-13T13:27:05.847Z,3.7
2023-04-13T13:28:47.898Z,4.6
2023-04-13T13:29:48.519Z,2.0
2023-04-13T13:30:49.115Z,1.6
2023-04-13T13:31:49.761Z,3.5
2023-04-13T13:32:50.371Z,2.0
2023-04-13T13:33:50.959Z,2.4
2023-04-13T13:34:51.566Z,2.7
2023-04-13T13:35:52.160Z,4.2
2023-04-13T13:36:52.761Z,4.6
2023-04-13T13:37:53.367Z,3.6
2023-04-13T13:38:53.965Z,4.0
2023-04-13T13:39:54.590Z,1.9
2023-04-13T13:40:55.171Z,2.2
2023-04-13T13:41:55.805Z,2.0
2023-04-13T13:42:56.395Z,1.9
2023-04-13T13:43:56.996Z,3.4
2023-04-13T13:44:57.658Z,1.9
2023-04-13T13:45:58.378Z,3.7
2023-04-13T13:46:59.055Z,1.7
2023-04-13T13:47:59.688Z,3.6
2023-04-13T13:49:00.392Z,4.6
2023-04-13T13:50:01.152Z,3.9
2023-04-13T13:51:01.737Z,4.8
2023-04-13T13:52:02.341Z,2.0
2023-04-13T13:53:04.322Z,2.7
2023-04-13T13:54:04.569Z,2.3
2023-04-13T13:55:05.143Z,3.8
2023-04-13T13:56:05.745Z,3.5
2023-04-13T13:57:06.348Z,4.2
2023-04-13T13:58:06.953Z,2.4
2023-04-13T13:59:07.577Z,2.1
2023-04-13T14:00:08.180Z,2.9